createdAt,value
2018-07-30T00:00:05.699Z,23.30
2018-07-30T00:01:10.390Z,23.30
2018-07-30T00:02:05.742Z,23.30
2018-07-30T00:03:08.534Z,23.20
2018-07-30T00:04:08.617Z,23.20
2018-07-30T00:05:05.915Z,23.20
2018-07-30T00:06:05.312Z,23.20
2018-07-30T00:07:12.784Z,23.10
2018-07-30T00:08:05.239Z,23.20
2018-07-30T00:09:05.598Z,23.20
2018-07-30T00:10:05.443Z,23.20
2018-07-30T00:11:06.052Z,23.10
2018-07-30T00:12:05.698Z,23.10
2018-07-30T00:13:05.860Z,23.10
2018-07-30T00:14:05.909Z,23.10
2018-07-30T00:15:10.890Z,23.10
2018-07-30T00:16:05.286Z,23.10
2018-07-30T00:17:05.392Z,23.10
2018-07-30T00:18:05.485Z,23.10
2018-07-30T00:19:05.197Z,23.00
2018-07-30T00:20:07.995Z,23.00
2018-07-30T00:21:05.725Z,23.00
2018-07-30T00:22:08.552Z,22.90
2018-07-30T00:23:05.050Z,22.90
2018-07-30T00:24:06.008Z,22.90
2018-07-30T00:25:10.730Z,22.80
2018-07-30T00:26:05.266Z,22.80
2018-07-30T00:27:07.756Z,22.80
2018-07-30T00:28:07.684Z,22.70
2018-07-30T00:29:05.061Z,22.80
2018-07-30T00:30:05.610Z,22.70
2018-07-30T00:31:05.278Z,22.70
2018-07-30T00:32:06.006Z,22.70
2018-07-30T00:33:08.297Z,22.60
2018-07-30T00:34:08.334Z,22.60
2018-07-30T00:35:08.240Z,22.60
2018-07-30T00:36:05.716Z,22.60
2018-07-30T00:37:05.592Z,22.60
2018-07-30T00:38:05.907Z,22.60
2018-07-30T00:39:05.764Z,22.60
2018-07-30T00:40:05.659Z,22.60
2018-07-30T00:41:05.192Z,22.50
2018-07-30T00:42:05.096Z,22.50
2018-07-30T00:43:10.898Z,22.50
2018-07-30T00:44:15.409Z,22.50
2018-07-30T00:45:08.280Z,22.50
2018-07-30T00:46:05.728Z,22.40
2018-07-30T00:47:13.329Z,22.40
2018-07-30T00:48:05.761Z,22.40
2018-07-30T00:49:10.600Z,22.40
2018-07-30T00:50:06.024Z,22.40
2018-07-30T00:51:10.797Z,22.40
2018-07-30T00:52:05.220Z,22.40
2018-07-30T00:53:05.331Z,22.40
2018-07-30T00:54:05.473Z,22.40
2018-07-30T00:55:05.451Z,22.40
2018-07-30T00:56:08.073Z,22.40
2018-07-30T00:57:10.467Z,22.40
2018-07-30T00:58:05.959Z,22.40
2018-07-30T00:59:05.864Z,22.40
2018-07-30T01:00:06.157Z,22.30
2018-07-30T01:01:06.207Z,22.30
2018-07-30T01:02:08.375Z,22.30
2018-07-30T01:03:08.418Z,22.30
2018-07-30T01:04:05.893Z,22.30
2018-07-30T01:05:07.980Z,22.20
2018-07-30T01:06:05.690Z,22.20
2018-07-30T01:07:05.719Z,22.20
2018-07-30T01:08:05.948Z,22.30
2018-07-30T01:09:11.046Z,22.20
2018-07-30T01:10:08.121Z,22.20
2018-07-30T01:11:05.561Z,22.20
2018-07-30T01:12:10.931Z,22.10
2018-07-30T01:13:07.955Z,22.10
2018-07-30T01:14:10.484Z,22.10
2018-07-30T01:15:08.516Z,22.10
2018-07-30T01:16:05.829Z,22.10
2018-07-30T01:17:08.354Z,22.10
2018-07-30T01:18:06.124Z,22.10
2018-07-30T01:19:10.775Z,22.10
2018-07-30T01:20:10.220Z,22.10
2018-07-30T01:21:08.237Z,22.10
2018-07-30T01:22:10.844Z,22.00
2018-07-30T01:23:05.381Z,22.00
2018-07-30T01:24:10.483Z,22.00
2018-07-30T01:25:10.985Z,22.00
2018-07-30T01:26:07.850Z,22.00
2018-07-30T01:27:10.313Z,22.00
2018-07-30T01:28:10.796Z,22.00
2018-07-30T01:29:05.096Z,22.00
2018-07-30T01:30:05.517Z,22.00
2018-07-30T01:31:08.078Z,22.00
2018-07-30T01:32:05.580Z,22.00
2018-07-30T01:33:05.749Z,22.00
2018-07-30T01:34:05.836Z,22.00
2018-07-30T01:35:05.660Z,21.90
2018-07-30T01:36:10.814Z,21.90
2018-07-30T01:37:05.982Z,21.80
2018-07-30T01:38:05.558Z,21.80
2018-07-30T01:39:11.271Z,21.80
2018-07-30T01:40:05.672Z,21.80
2018-07-30T01:41:10.573Z,21.80
2018-07-30T01:42:08.504Z,21.80
2018-07-30T01:43:05.874Z,21.80
2018-07-30T01:44:05.960Z,21.80
2018-07-30T01:45:10.691Z,21.80
2018-07-30T01:46:05.149Z,21.80
2018-07-30T01:47:05.988Z,21.80
2018-07-30T01:48:05.430Z,21.70
2018-07-30T01:49:05.441Z,21.70
2018-07-30T01:50:05.601Z,21.70
2018-07-30T01:51:10.292Z,21.70
2018-07-30T01:52:05.713Z,21.60
2018-07-30T01:53:10.444Z,21.60
2018-07-30T01:54:05.114Z,21.60
2018-07-30T01:55:05.160Z,21.60
2018-07-30T01:56:05.271Z,21.60
2018-07-30T01:57:05.044Z,21.60
2018-07-30T01:58:06.963Z,21.50
2018-07-30T01:59:10.533Z,21.50
2018-07-30T02:00:05.869Z,21.50
2018-07-30T02:01:08.486Z,21.40
2018-07-30T02:02:08.391Z,21.50
2018-07-30T02:03:05.806Z,21.40
2018-07-30T02:04:05.916Z,21.50
2018-07-30T02:05:05.401Z,21.40
2018-07-30T02:06:06.057Z,21.40
2018-07-30T02:07:11.143Z,21.40
2018-07-30T02:08:05.519Z,21.30
2018-07-30T02:09:05.563Z,21.30
2018-07-30T02:10:05.745Z,21.40
2018-07-30T02:11:10.570Z,21.30
2018-07-30T02:12:05.792Z,20.80
2018-07-30T02:13:10.739Z,21.20
2018-07-30T02:14:05.135Z,21.20
2018-07-30T02:15:05.167Z,21.20
2018-07-30T02:16:06.163Z,21.20
2018-07-30T02:17:08.281Z,21.20
2018-07-30T02:18:08.173Z,21.30
2018-07-30T02:19:08.058Z,21.20
2018-07-30T02:20:05.485Z,21.30
2018-07-30T02:21:10.534Z,21.20
2018-07-30T02:22:06.028Z,21.20
2018-07-30T02:23:05.981Z,21.30
2018-07-30T02:24:05.494Z,21.20
2018-07-30T02:25:11.035Z,21.20
2018-07-30T02:26:05.333Z,21.20
2018-07-30T02:27:05.336Z,21.20
2018-07-30T02:28:10.368Z,21.10
2018-07-30T02:29:05.732Z,21.20
2018-07-30T02:30:07.872Z,21.10
2018-07-30T02:31:05.225Z,21.10
2018-07-30T02:32:05.828Z,21.10
2018-07-30T02:33:06.270Z,21.10
2018-07-30T02:34:08.421Z,21.10
2018-07-30T02:35:05.886Z,21.10
2018-07-30T02:36:05.485Z,21.10
2018-07-30T02:37:05.795Z,21.10
2018-07-30T02:38:05.678Z,21.10
2018-07-30T02:39:05.511Z,21.10
2018-07-30T02:40:10.779Z,21.10
2018-07-30T02:41:05.249Z,21.10
2018-07-30T02:42:05.051Z,21.00
2018-07-30T02:43:05.067Z,21.10
2018-07-30T02:44:06.008Z,21.00
2018-07-30T02:45:06.384Z,21.00
2018-07-30T02:46:10.998Z,21.00
2018-07-30T02:47:05.592Z,21.00
2018-07-30T02:48:05.558Z,21.00
2018-07-30T02:49:05.853Z,21.00
2018-07-30T02:50:05.821Z,21.00
2018-07-30T02:51:10.783Z,21.00
2018-07-30T02:52:10.957Z,20.90
2018-07-30T02:53:05.251Z,20.90
2018-07-30T02:54:06.239Z,21.00
2018-07-30T02:55:10.930Z,20.90
2018-07-30T02:56:05.793Z,20.90
2018-07-30T02:57:05.630Z,20.90
2018-07-30T02:58:08.156Z,20.90
2018-07-30T02:59:05.056Z,20.80
2018-07-30T03:00:08.495Z,20.80
2018-07-30T03:01:10.904Z,20.80
2018-07-30T03:02:10.327Z,20.80
2018-07-30T03:03:05.818Z,20.80
2018-07-30T03:04:05.514Z,20.80
2018-07-30T03:05:05.520Z,20.80
2018-07-30T03:06:05.580Z,20.80
2018-07-30T03:07:05.924Z,20.80
2018-07-30T03:08:05.893Z,20.80
2018-07-30T03:09:05.302Z,20.80
2018-07-30T03:10:08.088Z,20.70
2018-07-30T03:11:08.042Z,20.70
2018-07-30T03:12:05.419Z,20.70
2018-07-30T03:13:05.657Z,20.70
2018-07-30T03:14:05.901Z,20.80
2018-07-30T03:15:05.980Z,20.70
2018-07-30T03:16:05.609Z,20.70
2018-07-30T03:17:05.960Z,20.70
2018-07-30T03:18:10.732Z,20.70
2018-07-30T03:19:05.078Z,20.70
2018-07-30T03:20:10.985Z,20.70
2018-07-30T03:21:05.427Z,20.70
2018-07-30T03:22:05.453Z,20.70
2018-07-30T03:23:08.636Z,20.70
2018-07-30T03:24:08.594Z,20.70
2018-07-30T03:25:05.636Z,20.70
2018-07-30T03:26:05.713Z,20.70
2018-07-30T03:27:05.956Z,20.70
2018-07-30T03:28:05.744Z,20.70
2018-07-30T03:29:05.854Z,20.70
2018-07-30T03:30:06.429Z,20.70
2018-07-30T03:31:05.979Z,20.70
2018-07-30T03:32:05.653Z,20.70
2018-07-30T03:33:10.793Z,20.70
2018-07-30T03:34:05.080Z,20.70
2018-07-30T03:35:05.823Z,20.70
2018-07-30T03:36:07.961Z,20.70
2018-07-30T03:37:05.479Z,20.70
2018-07-30T03:38:06.391Z,20.70
2018-07-30T03:39:06.235Z,20.70
2018-07-30T03:40:08.592Z,20.70
2018-07-30T03:41:07.882Z,20.70
2018-07-30T03:42:05.404Z,20.70
2018-07-30T03:43:10.463Z,20.70
2018-07-30T03:44:08.424Z,20.60
2018-07-30T03:45:05.789Z,20.60
2018-07-30T03:46:05.803Z,20.60
2018-07-30T03:47:10.580Z,20.60
2018-07-30T03:48:06.277Z,20.70
2018-07-30T03:49:06.109Z,20.60
2018-07-30T03:50:05.783Z,20.60
2018-07-30T03:51:10.775Z,20.60
2018-07-30T03:52:10.353Z,20.60
2018-07-30T03:53:08.372Z,20.60
2018-07-30T03:54:06.009Z,20.60
2018-07-30T03:55:08.109Z,20.60
2018-07-30T03:56:05.962Z,20.60
2018-07-30T03:57:05.447Z,20.60
2018-07-30T03:58:08.296Z,20.60
2018-07-30T03:59:08.621Z,20.50
2018-07-30T04:00:08.021Z,20.50
2018-07-30T04:01:05.615Z,20.50
2018-07-30T04:02:05.214Z,20.50
2018-07-30T04:03:05.937Z,20.50
2018-07-30T04:04:05.736Z,20.50
2018-07-30T04:05:05.846Z,20.50
2018-07-30T04:06:08.544Z,20.50
2018-07-30T04:07:05.395Z,20.50
2018-07-30T04:08:05.409Z,20.50
2018-07-30T04:09:10.300Z,20.50
2018-07-30T04:10:05.645Z,20.50
2018-07-30T04:11:08.364Z,20.50
2018-07-30T04:12:08.384Z,20.50
2018-07-30T04:13:08.285Z,20.60
2018-07-30T04:14:10.900Z,20.60
2018-07-30T04:15:05.315Z,20.50
2018-07-30T04:16:08.496Z,20.60
2018-07-30T04:17:13.518Z,20.50
2018-07-30T04:18:11.062Z,20.50
2018-07-30T04:19:10.402Z,20.50
2018-07-30T04:20:05.857Z,20.60
2018-07-30T04:21:10.711Z,20.60
2018-07-30T04:22:12.637Z,20.60
2018-07-30T04:23:07.675Z,20.60
2018-07-30T04:24:05.256Z,20.60
2018-07-30T04:25:08.177Z,20.60
2018-07-30T04:26:05.640Z,20.60
2018-07-30T04:27:08.151Z,20.60
2018-07-30T04:28:05.508Z,20.60
2018-07-30T04:29:08.257Z,20.70
2018-07-30T04:30:08.149Z,20.60
2018-07-30T04:31:10.828Z,20.70
2018-07-30T04:32:10.391Z,20.70
2018-07-30T04:33:06.024Z,20.80
2018-07-30T04:34:05.699Z,20.80
2018-07-30T04:35:05.731Z,20.90
2018-07-30T04:36:05.625Z,21.00
2018-07-30T04:37:05.593Z,21.10
2018-07-30T04:38:10.883Z,21.30
2018-07-30T04:39:10.597Z,21.30
2018-07-30T04:40:08.400Z,21.60
2018-07-30T04:41:10.872Z,21.60
2018-07-30T04:42:05.481Z,21.80
2018-07-30T04:43:05.466Z,22.00
2018-07-30T04:44:05.712Z,22.20
2018-07-30T04:45:05.427Z,22.40
2018-07-30T04:46:05.773Z,22.50
2018-07-30T04:47:10.459Z,22.90
2018-07-30T04:48:10.585Z,23.00
2018-07-30T04:49:06.036Z,23.10
2018-07-30T04:50:05.778Z,23.20
2018-07-30T04:51:06.258Z,23.40
2018-07-30T04:52:06.105Z,23.60
2018-07-30T04:53:05.729Z,23.70
2018-07-30T04:54:10.280Z,23.90
2018-07-30T04:55:05.689Z,24.00
2018-07-30T04:56:08.283Z,24.30
2018-07-30T04:57:08.213Z,24.50
2018-07-30T04:58:05.693Z,24.40
2018-07-30T04:59:10.820Z,24.50
2018-07-30T05:00:05.134Z,24.70
2018-07-30T05:01:06.421Z,24.80
2018-07-30T05:02:08.465Z,25.10
2018-07-30T05:03:06.433Z,25.00
2018-07-30T05:04:05.445Z,25.20
2018-07-30T05:05:07.729Z,25.30
2018-07-30T05:06:05.113Z,25.30
2018-07-30T05:07:08.584Z,25.50
2018-07-30T05:08:07.094Z,25.60
2018-07-30T05:09:05.718Z,25.70
2018-07-30T05:10:06.193Z,25.80
2018-07-30T05:11:05.630Z,25.90
2018-07-30T05:12:05.325Z,25.90
2018-07-30T05:13:05.507Z,26.00
2018-07-30T05:14:05.938Z,26.10
2018-07-30T05:15:08.474Z,26.30
2018-07-30T05:16:05.971Z,26.30
2018-07-30T05:17:08.274Z,26.50
2018-07-30T05:18:06.045Z,26.40
2018-07-30T05:19:10.760Z,26.60
2018-07-30T05:20:05.083Z,26.60
2018-07-30T05:21:08.244Z,26.80
2018-07-30T05:22:05.685Z,26.80
2018-07-30T05:23:05.716Z,26.90
2018-07-30T05:24:07.714Z,27.00
2018-07-30T05:25:05.076Z,27.00
2018-07-30T05:26:10.924Z,27.20
2018-07-30T05:27:05.320Z,27.20
2018-07-30T05:28:06.070Z,27.30
2018-07-30T05:29:05.716Z,27.40
2018-07-30T05:30:06.245Z,27.40
2018-07-30T05:31:10.483Z,27.60
2018-07-30T05:32:06.698Z,27.60
2018-07-30T05:33:08.241Z,27.70
2018-07-30T05:34:05.643Z,27.70
2018-07-30T05:35:11.179Z,27.90
2018-07-30T05:36:05.416Z,27.90
2018-07-30T05:37:05.936Z,28.00
2018-07-30T05:38:11.009Z,28.10
2018-07-30T05:39:05.403Z,28.20
2018-07-30T05:40:05.711Z,28.20
2018-07-30T05:41:10.331Z,28.30
2018-07-30T05:42:05.682Z,28.40
2018-07-30T05:43:05.639Z,28.40
2018-07-30T05:44:05.759Z,28.50
2018-07-30T05:45:08.675Z,28.60
2018-07-30T05:46:10.175Z,28.60
2018-07-30T05:47:05.381Z,28.60
2018-07-30T05:48:05.178Z,28.70
2018-07-30T05:49:05.253Z,28.70
2018-07-30T05:50:05.474Z,28.80
2018-07-30T05:51:05.883Z,28.80
2018-07-30T05:52:05.894Z,28.80
2018-07-30T05:53:05.975Z,28.90
2018-07-30T05:54:05.869Z,28.90
2018-07-30T05:55:11.022Z,29.00
2018-07-30T05:56:05.447Z,29.00
2018-07-30T05:57:05.078Z,29.00
2018-07-30T05:58:05.570Z,29.00
2018-07-30T05:59:10.784Z,29.10
2018-07-30T06:00:05.198Z,29.10
2018-07-30T06:01:08.390Z,29.20
2018-07-30T06:02:08.450Z,29.30
2018-07-30T06:03:05.865Z,29.30
2018-07-30T06:04:08.340Z,29.50
2018-07-30T06:05:05.923Z,29.40
2018-07-30T06:06:05.734Z,29.50
2018-07-30T06:07:06.297Z,29.60
2018-07-30T06:08:05.893Z,29.50
2018-07-30T06:09:05.764Z,29.60
2018-07-30T06:10:05.940Z,29.60
2018-07-30T06:11:05.881Z,29.60
2018-07-30T06:12:10.435Z,29.60
2018-07-30T06:13:05.845Z,29.60
2018-07-30T06:14:08.377Z,29.60
2018-07-30T06:15:06.176Z,29.70
2018-07-30T06:16:08.572Z,29.80
2018-07-30T06:17:05.627Z,29.80
2018-07-30T06:18:05.646Z,29.90
2018-07-30T06:19:08.396Z,30.00
2018-07-30T06:20:10.890Z,30.10
2018-07-30T06:21:10.784Z,30.10
2018-07-30T06:22:05.196Z,30.10
2018-07-30T06:23:05.235Z,30.20
2018-07-30T06:24:05.229Z,30.30
2018-07-30T06:25:11.001Z,30.40
2018-07-30T06:26:05.600Z,30.40
2018-07-30T06:27:05.705Z,30.50
2018-07-30T06:28:10.982Z,30.60
2018-07-30T06:29:10.446Z,30.70
2018-07-30T06:30:10.641Z,30.70
2018-07-30T06:31:06.013Z,30.70
2018-07-30T06:32:06.034Z,30.80
2018-07-30T06:33:08.493Z,30.90
2018-07-30T06:34:05.996Z,31.00
2018-07-30T06:35:06.013Z,31.00
2018-07-30T06:36:10.938Z,31.10
2018-07-30T06:37:05.526Z,31.20
2018-07-30T06:38:06.010Z,31.20
2018-07-30T06:39:05.958Z,31.20
2018-07-30T06:40:05.778Z,31.30
2018-07-30T06:41:05.840Z,31.30
2018-07-30T06:42:06.103Z,31.30
2018-07-30T06:43:06.155Z,31.30
2018-07-30T06:44:05.334Z,31.30
2018-07-30T06:45:10.324Z,31.30
2018-07-30T06:46:10.835Z,31.30
2018-07-30T06:47:05.562Z,31.30
2018-07-30T06:48:05.815Z,31.40
2018-07-30T06:49:06.006Z,31.40
2018-07-30T06:50:06.300Z,31.40
2018-07-30T06:51:10.935Z,31.40
2018-07-30T06:52:05.582Z,31.40
2018-07-30T06:53:05.428Z,31.40
2018-07-30T06:54:10.417Z,31.50
2018-07-30T06:55:06.472Z,31.50
2018-07-30T06:56:06.115Z,31.60
2018-07-30T06:57:08.140Z,31.50
2018-07-30T06:58:05.909Z,31.50
2018-07-30T06:59:05.802Z,31.50
2018-07-30T07:00:08.106Z,31.50
2018-07-30T07:01:05.519Z,31.50
2018-07-30T07:02:10.529Z,31.60
2018-07-30T07:03:05.933Z,31.50
2018-07-30T07:04:05.936Z,31.60
2018-07-30T07:05:05.870Z,31.60
2018-07-30T07:06:08.530Z,31.70
2018-07-30T07:07:05.981Z,31.70
2018-07-30T07:08:06.025Z,31.70
2018-07-30T07:09:10.895Z,31.80
2018-07-30T07:10:10.355Z,31.90
2018-07-30T07:11:05.744Z,31.90
2018-07-30T07:12:05.229Z,31.90
2018-07-30T07:13:08.006Z,32.00
2018-07-30T07:14:13.486Z,32.10
2018-07-30T07:15:05.942Z,32.10
2018-07-30T07:16:06.010Z,32.20
2018-07-30T07:17:06.045Z,32.20
2018-07-30T07:18:10.882Z,32.20
2018-07-30T07:19:07.725Z,32.30
2018-07-30T07:20:05.042Z,32.30
2018-07-30T07:21:08.724Z,32.40
2018-07-30T07:22:05.646Z,32.40
2018-07-30T07:23:06.580Z,32.40
2018-07-30T07:24:05.139Z,32.50
2018-07-30T07:25:05.686Z,32.40
2018-07-30T07:26:05.674Z,32.50
2018-07-30T07:27:10.215Z,32.50
2018-07-30T07:28:06.134Z,32.50
2018-07-30T07:29:11.076Z,32.50
2018-07-30T07:30:08.062Z,32.60
2018-07-30T07:31:06.675Z,32.60
2018-07-30T07:32:08.463Z,32.70
2018-07-30T07:33:06.084Z,32.70
2018-07-30T07:34:11.044Z,32.80
2018-07-30T07:35:05.408Z,32.70
2018-07-30T07:36:05.491Z,32.80
2018-07-30T07:37:07.954Z,32.80
2018-07-30T07:38:05.323Z,32.80
2018-07-30T07:39:05.754Z,32.90
2018-07-30T07:40:11.016Z,32.90
2018-07-30T07:41:10.710Z,32.90
2018-07-30T07:42:05.108Z,32.90
2018-07-30T07:43:10.344Z,33.00
2018-07-30T07:44:05.849Z,32.90
2018-07-30T07:45:05.966Z,33.00
2018-07-30T07:46:05.509Z,33.00
2018-07-30T07:47:05.619Z,33.00
2018-07-30T07:48:05.562Z,33.00
2018-07-30T07:49:05.504Z,33.00
2018-07-30T07:50:05.868Z,33.00
2018-07-30T07:51:05.170Z,33.00
2018-07-30T07:52:05.958Z,33.00
2018-07-30T07:53:06.052Z,33.10
2018-07-30T07:54:05.097Z,33.10
2018-07-30T07:55:05.146Z,33.10
2018-07-30T07:56:11.023Z,33.10
2018-07-30T07:57:10.422Z,33.20
2018-07-30T07:58:10.938Z,33.30
2018-07-30T07:59:05.681Z,33.30
2018-07-30T08:00:11.109Z,33.40
2018-07-30T08:01:10.535Z,33.50
2018-07-30T08:02:07.085Z,33.50
2018-07-30T08:03:05.616Z,33.50
2018-07-30T08:04:06.204Z,33.50
2018-07-30T08:05:06.396Z,33.50
2018-07-30T08:06:05.424Z,33.50
2018-07-30T08:07:05.522Z,33.50
2018-07-30T08:08:07.988Z,33.50
2018-07-30T08:09:05.869Z,33.50
2018-07-30T08:10:05.890Z,33.50
2018-07-30T08:11:05.845Z,33.50
2018-07-30T08:12:06.066Z,33.50
2018-07-30T08:13:05.939Z,33.50
2018-07-30T08:14:06.293Z,33.60
2018-07-30T08:15:05.976Z,33.60
2018-07-30T08:16:06.398Z,33.60
2018-07-30T08:17:05.978Z,33.60
2018-07-30T08:18:10.664Z,33.50
2018-07-30T08:19:05.108Z,33.60
2018-07-30T08:20:05.970Z,33.60
2018-07-30T08:21:05.752Z,33.60
2018-07-30T08:22:08.635Z,33.70
2018-07-30T08:23:05.240Z,33.70
2018-07-30T08:24:08.064Z,33.60
2018-07-30T08:25:05.540Z,33.70
2018-07-30T08:26:08.161Z,33.70
2018-07-30T08:27:05.616Z,33.70
2018-07-30T08:28:10.472Z,33.80
2018-07-30T08:29:11.054Z,33.80
2018-07-30T08:30:05.742Z,33.80
2018-07-30T08:31:06.111Z,33.90
2018-07-30T08:32:05.391Z,33.90
2018-07-30T08:33:05.545Z,33.90
2018-07-30T08:34:08.357Z,34.00
2018-07-30T08:35:05.846Z,34.00
2018-07-30T08:36:05.760Z,34.00
2018-07-30T08:37:05.877Z,34.00
2018-07-30T08:38:08.470Z,34.00
2018-07-30T08:39:05.901Z,34.00
2018-07-30T08:40:05.903Z,34.00
2018-07-30T08:41:10.931Z,34.00
2018-07-30T08:42:05.304Z,34.10
2018-07-30T08:43:05.433Z,34.10
2018-07-30T08:44:05.780Z,34.10
2018-07-30T08:45:05.365Z,34.10
2018-07-30T08:46:05.855Z,34.10
2018-07-30T08:47:08.552Z,34.10
2018-07-30T08:48:10.999Z,34.10
2018-07-30T08:49:05.392Z,34.10
2018-07-30T08:50:06.013Z,34.10
2018-07-30T08:51:06.101Z,34.10
2018-07-30T08:52:05.154Z,34.10
2018-07-30T08:53:10.767Z,34.20
2018-07-30T08:54:05.528Z,34.10
2018-07-30T08:55:10.604Z,34.20
2018-07-30T08:56:11.216Z,34.10
2018-07-30T08:57:10.671Z,34.10
2018-07-30T08:58:11.267Z,34.00
2018-07-30T08:59:05.922Z,34.10
2018-07-30T09:00:05.953Z,34.10
2018-07-30T09:01:05.747Z,34.00
2018-07-30T09:02:06.162Z,34.00
2018-07-30T09:03:05.979Z,34.00
2018-07-30T09:04:05.735Z,34.00
2018-07-30T09:05:06.017Z,34.00
2018-07-30T09:06:05.120Z,34.00
2018-07-30T09:07:06.008Z,34.00
2018-07-30T09:08:08.379Z,33.90
2018-07-30T09:09:05.915Z,33.90
2018-07-30T09:10:08.638Z,33.90
2018-07-30T09:11:05.197Z,33.80
2018-07-30T09:12:10.868Z,33.80
2018-07-30T09:13:10.376Z,33.80
2018-07-30T09:14:10.773Z,33.90
2018-07-30T09:15:08.543Z,33.90
2018-07-30T09:16:05.985Z,33.90
2018-07-30T09:17:05.257Z,34.00
2018-07-30T09:18:05.364Z,34.00
2018-07-30T09:19:08.491Z,34.10
2018-07-30T09:20:13.611Z,34.20
2018-07-30T09:21:11.240Z,34.20
2018-07-30T09:22:05.724Z,34.20
2018-07-30T09:23:06.038Z,34.20
2018-07-30T09:24:06.042Z,34.20
2018-07-30T09:25:06.055Z,34.30
2018-07-30T09:26:05.982Z,34.30
2018-07-30T09:27:06.330Z,34.30
2018-07-30T09:28:05.216Z,34.30
2018-07-30T09:29:05.791Z,34.40
2018-07-30T09:30:05.468Z,34.40
2018-07-30T09:31:07.941Z,34.50
2018-07-30T09:32:10.458Z,34.50
2018-07-30T09:33:06.036Z,34.60
2018-07-30T09:34:08.502Z,34.60
2018-07-30T09:35:05.922Z,34.60
2018-07-30T09:36:11.168Z,34.70
2018-07-30T09:37:05.438Z,34.70
2018-07-30T09:38:05.427Z,34.70
2018-07-30T09:39:06.283Z,34.70
2018-07-30T09:40:05.158Z,34.70
2018-07-30T09:41:05.965Z,34.70
2018-07-30T09:42:06.190Z,34.70
2018-07-30T09:43:05.831Z,34.70
2018-07-30T09:44:05.212Z,34.80
2018-07-30T09:45:10.999Z,34.80
2018-07-30T09:46:05.349Z,34.80
2018-07-30T09:47:08.149Z,34.80
2018-07-30T09:48:10.636Z,34.80
2018-07-30T09:49:05.486Z,34.80
2018-07-30T09:50:05.246Z,34.80
2018-07-30T09:51:05.971Z,34.80
2018-07-30T09:52:06.115Z,34.80
2018-07-30T09:53:06.041Z,34.90
2018-07-30T09:54:11.050Z,34.90
2018-07-30T09:55:08.100Z,35.00
2018-07-30T09:56:05.698Z,35.00
2018-07-30T09:57:11.173Z,35.10
2018-07-30T09:58:05.556Z,35.10
2018-07-30T09:59:05.443Z,35.00
2018-07-30T10:00:05.397Z,35.00
2018-07-30T10:01:05.879Z,34.90
2018-07-30T10:02:08.637Z,34.90
2018-07-30T10:03:06.018Z,34.90
2018-07-30T10:04:06.233Z,34.90
2018-07-30T10:05:05.196Z,35.00
2018-07-30T10:06:05.746Z,35.00
2018-07-30T10:07:08.147Z,35.10
2018-07-30T10:08:05.914Z,35.10
2018-07-30T10:09:05.919Z,35.10
2018-07-30T10:10:11.036Z,35.20
2018-07-30T10:11:05.480Z,35.20
2018-07-30T10:12:05.229Z,35.30
2018-07-30T10:13:05.288Z,35.30
2018-07-30T10:14:10.994Z,35.40
2018-07-30T10:15:08.500Z,35.40
2018-07-30T10:16:06.533Z,35.40
2018-07-30T10:17:05.540Z,35.40
2018-07-30T10:18:11.030Z,35.30
2018-07-30T10:19:05.588Z,35.30
2018-07-30T10:20:10.654Z,35.30
2018-07-30T10:21:05.134Z,35.20
2018-07-30T10:22:06.299Z,35.10
2018-07-30T10:23:05.287Z,35.10
2018-07-30T10:24:05.460Z,35.10
2018-07-30T10:25:05.739Z,35.10
2018-07-30T10:26:05.557Z,35.10
2018-07-30T10:27:10.463Z,35.10
2018-07-30T10:28:08.195Z,35.10
2018-07-30T10:29:08.098Z,35.10
2018-07-30T10:30:08.083Z,35.20
2018-07-30T10:31:05.397Z,35.20
2018-07-30T10:32:05.381Z,35.20
2018-07-30T10:33:05.206Z,35.30
2018-07-30T10:34:08.251Z,35.40
2018-07-30T10:35:08.354Z,35.50
2018-07-30T10:36:05.785Z,35.40
2018-07-30T10:37:06.122Z,35.40
2018-07-30T10:38:06.264Z,35.40
2018-07-30T10:39:05.337Z,35.40
2018-07-30T10:40:05.858Z,35.40
2018-07-30T10:41:05.151Z,35.40
2018-07-30T10:42:05.629Z,35.40
2018-07-30T10:43:05.230Z,35.40
2018-07-30T10:44:05.502Z,35.40
2018-07-30T10:45:05.233Z,35.30
2018-07-30T10:46:05.616Z,35.30
2018-07-30T10:47:05.679Z,35.20
2018-07-30T10:48:08.658Z,35.00
2018-07-30T10:49:05.423Z,35.00
2018-07-30T10:50:08.840Z,34.80
2018-07-30T10:51:10.386Z,34.70
2018-07-30T10:52:05.582Z,34.70
2018-07-30T10:53:05.318Z,34.60
2018-07-30T10:54:05.161Z,34.60
2018-07-30T10:55:07.980Z,34.60
2018-07-30T10:56:05.953Z,34.60
2018-07-30T10:57:05.688Z,34.60
2018-07-30T10:58:06.037Z,34.60
2018-07-30T10:59:06.021Z,34.70
2018-07-30T11:00:05.387Z,34.70
2018-07-30T11:01:06.351Z,34.70
2018-07-30T11:02:10.652Z,34.70
2018-07-30T11:03:10.635Z,34.70
2018-07-30T11:04:06.035Z,34.80
2018-07-30T11:05:05.358Z,34.90
2018-07-30T11:06:05.661Z,34.90
2018-07-30T11:07:07.952Z,35.00
2018-07-30T11:08:10.957Z,35.00
2018-07-30T11:09:10.519Z,35.10
2018-07-30T11:10:06.131Z,35.10
2018-07-30T11:11:08.015Z,35.10
2018-07-30T11:12:05.408Z,35.10
2018-07-30T11:13:05.272Z,35.20
2018-07-30T11:14:10.362Z,35.20
2018-07-30T11:15:10.686Z,35.30
2018-07-30T11:16:10.078Z,35.30
2018-07-30T11:17:10.302Z,35.20
2018-07-30T11:18:06.124Z,35.10
2018-07-30T11:19:06.493Z,35.10
2018-07-30T11:20:05.490Z,35.00
2018-07-30T11:21:08.231Z,34.90
2018-07-30T11:22:05.668Z,34.90
2018-07-30T11:23:10.698Z,34.80
2018-07-30T11:24:05.303Z,34.80
2018-07-30T11:25:05.106Z,34.80
2018-07-30T11:26:05.421Z,34.70
2018-07-30T11:27:06.145Z,34.60
2018-07-30T11:28:05.867Z,34.50
2018-07-30T11:29:07.668Z,34.40
2018-07-30T11:30:05.665Z,34.40
2018-07-30T11:31:05.929Z,34.40
2018-07-30T11:32:05.900Z,34.40
2018-07-30T11:33:10.842Z,34.30
2018-07-30T11:34:07.875Z,34.30
2018-07-30T11:35:08.557Z,34.30
2018-07-30T11:36:05.252Z,34.30
2018-07-30T11:37:08.501Z,34.30
2018-07-30T11:38:05.553Z,34.30
2018-07-30T11:39:05.862Z,34.30
2018-07-30T11:40:07.810Z,34.20
2018-07-30T11:41:05.521Z,34.30
2018-07-30T11:42:06.098Z,34.30
2018-07-30T11:43:05.068Z,34.20
2018-07-30T11:44:08.555Z,34.20
2018-07-30T11:45:05.921Z,34.20
2018-07-30T11:46:08.795Z,34.10
2018-07-30T11:47:05.256Z,34.20
2018-07-30T11:48:08.459Z,34.10
2018-07-30T11:49:10.937Z,34.10
2018-07-30T11:50:05.291Z,34.10
2018-07-30T11:51:08.517Z,34.10
2018-07-30T11:52:11.063Z,34.00
2018-07-30T11:53:05.315Z,34.10
2018-07-30T11:54:08.646Z,34.10
2018-07-30T11:55:08.633Z,34.00
2018-07-30T11:56:05.076Z,34.10
2018-07-30T11:57:05.725Z,34.00
2018-07-30T11:58:05.475Z,34.00
2018-07-30T11:59:10.402Z,34.00
2018-07-30T12:00:05.943Z,34.00
2018-07-30T12:01:06.141Z,34.00
2018-07-30T12:02:10.507Z,33.90
2018-07-30T12:03:06.004Z,34.00
2018-07-30T12:04:05.083Z,34.00
2018-07-30T12:05:10.690Z,33.90
2018-07-30T12:06:05.295Z,33.90
2018-07-30T12:07:05.760Z,34.00
2018-07-30T12:08:05.381Z,33.90
2018-07-30T12:09:05.792Z,34.00
2018-07-30T12:10:05.465Z,33.90
2018-07-30T12:11:10.992Z,34.00
2018-07-30T12:12:05.353Z,34.00
2018-07-30T12:13:05.958Z,34.00
2018-07-30T12:14:06.345Z,34.10
2018-07-30T12:15:05.502Z,34.10
2018-07-30T12:16:06.063Z,34.20
2018-07-30T12:17:06.914Z,34.30
2018-07-30T12:18:10.720Z,34.20
2018-07-30T12:19:07.668Z,34.30
2018-07-30T12:20:05.228Z,34.30
2018-07-30T12:21:05.931Z,34.30
2018-07-30T12:22:05.329Z,34.30
2018-07-30T12:23:05.922Z,34.40
2018-07-30T12:24:05.776Z,34.40
2018-07-30T12:25:13.763Z,34.50
2018-07-30T12:26:05.551Z,34.40
2018-07-30T12:27:05.327Z,34.50
2018-07-30T12:28:07.962Z,34.60
2018-07-30T12:29:08.638Z,34.70
2018-07-30T12:30:05.184Z,34.70
2018-07-30T12:31:05.126Z,34.80
2018-07-30T12:32:11.045Z,34.80
2018-07-30T12:33:05.127Z,34.80
2018-07-30T12:34:05.429Z,34.90
2018-07-30T12:35:05.728Z,35.00
2018-07-30T12:36:07.737Z,35.00
2018-07-30T12:37:05.400Z,35.00
2018-07-30T12:38:06.066Z,35.00
2018-07-30T12:39:06.066Z,34.90
2018-07-30T12:40:06.090Z,35.00
2018-07-30T12:41:10.745Z,34.90
2018-07-30T12:42:05.168Z,34.90
2018-07-30T12:43:05.542Z,34.90
2018-07-30T12:44:10.902Z,34.80
2018-07-30T12:45:05.500Z,34.80
2018-07-30T12:46:05.180Z,34.80
2018-07-30T12:47:05.968Z,34.60
2018-07-30T12:48:05.252Z,34.50
2018-07-30T12:49:06.192Z,34.50
2018-07-30T12:50:08.452Z,34.40
2018-07-30T12:51:10.200Z,34.40
2018-07-30T12:52:08.895Z,34.40